sensor_id;sensor_type;location;lat;lon;timestamp;pressure;altitude;pressure_sealevel;temperature;humidity
18436;BME280;9346;52.006;4.720;2023-01-25T00:00:07;103707.25;;;2.43;100.00
18436;BME280;9346;52.006;4.720;2023-01-25T00:02:34;103702.38;;;2.47;100.00
18436;BME280;9346;52.006;4.720;2023-01-25T00:05:01;103698.94;;;2.45;100.00
18436;BME280;9346;52.006;4.720;2023-01-25T00:07:29;103703.25;;;2.47;100.00
18436;BME280;9346;52.006;4.720;2023-01-25T00:09:56;103707.22;;;2.53;100.00
18436;BME280;9346;52.006;4.720;2023-01-25T00:12:23;103707.75;;;2.56;100.00
18436;BME280;9346;52.006;4.720;2023-01-25T00:14:52;103693.53;;;2.62;100.00
18436;BME280;9346;52.006;4.720;2023-01-25T00:17:19;103691.09;;;2.59;100.00
18436;BME280;9346;52.006;4.720;2023-01-25T00:19:46;103688.00;;;2.54;100.00
18436;BME280;9346;52.006;4.720;2023-01-25T00:22:14;103684.72;;;2.51;100.00
18436;BME280;9346;52.006;4.720;2023-01-25T00:24:41;103679.44;;;2.49;100.00
18436;BME280;9346;52.006;4.720;2023-01-25T00:27:08;103680.75;;;2.45;100.00
18436;BME280;9346;52.006;4.720;2023-01-25T00:29:35;103675.00;;;2.48;100.00
18436;BME280;9346;52.006;4.720;2023-01-25T00:32:31;103675.38;;;2.53;100.00
18436;BME280;9346;52.006;4.720;2023-01-25T00:34:59;103667.22;;;2.53;100.00
18436;BME280;9346;52.006;4.720;2023-01-25T00:37:29;103661.63;;;2.55;100.00
18436;BME280;9346;52.006;4.720;2023-01-25T00:39:56;103662.50;;;2.55;100.00
18436;BME280;9346;52.006;4.720;2023-01-25T00:42:24;103657.06;;;2.55;100.00
18436;BME280;9346;52.006;4.720;2023-01-25T00:44:51;103653.47;;;2.55;100.00
18436;BME280;9346;52.006;4.720;2023-01-25T00:47:20;103660.66;;;2.56;100.00
18436;BME280;9346;52.006;4.720;2023-01-25T00:49:48;103660.38;;;2.49;100.00
18436;BME280;9346;52.006;4.720;2023-01-25T00:52:15;103660.91;;;2.35;100.00
18436;BME280;9346;52.006;4.720;2023-01-25T00:54:42;103662.41;;;2.29;100.00
18436;BME280;9346;52.006;4.720;2023-01-25T00:57:09;103657.47;;;2.33;100.00
18436;BME280;9346;52.006;4.720;2023-01-25T00:59:37;103659.91;;;2.36;100.00
18436;BME280;9346;52.006;4.720;2023-01-25T01:02:09;103664.31;;;2.37;100.00
18436;BME280;9346;52.006;4.720;2023-01-25T01:04:38;103671.66;;;2.37;100.00
18436;BME280;9346;52.006;4.720;2023-01-25T01:07:05;103661.75;;;2.35;100.00
18436;BME280;9346;52.006;4.720;2023-01-25T01:09:32;103662.25;;;2.31;100.00
18436;BME280;9346;52.006;4.720;2023-01-25T01:12:00;103655.38;;;2.27;100.00
18436;BME280;9346;52.006;4.720;2023-01-25T01:14:27;103645.28;;;2.19;100.00
18436;BME280;9346;52.006;4.720;2023-01-25T01:16:54;103644.94;;;2.22;100.00
18436;BME280;9346;52.006;4.720;2023-01-25T01:19:22;103647.22;;;2.27;100.00
18436;BME280;9346;52.006;4.720;2023-01-25T01:21:52;103646.53;;;2.25;100.00
18436;BME280;9346;52.006;4.720;2023-01-25T01:24:19;103648.06;;;2.27;100.00
18436;BME280;9346;52.006;4.720;2023-01-25T01:26:46;103646.06;;;2.29;100.00
18436;BME280;9346;52.006;4.720;2023-01-25T01:29:13;103649.63;;;2.30;100.00
18436;BME280;9346;52.006;4.720;2023-01-25T01:31:40;103644.09;;;2.22;100.00
18436;BME280;9346;52.006;4.720;2023-01-25T01:34:11;103644.41;;;2.19;100.00
18436;BME280;9346;52.006;4.720;2023-01-25T01:36:38;103648.31;;;2.16;100.00
18436;BME280;9346;52.006;4.720;2023-01-25T01:39:07;103648.53;;;2.23;100.00
18436;BME280;9346;52.006;4.720;2023-01-25T01:41:36;103649.09;;;2.26;100.00
18436;BME280;9346;52.006;4.720;2023-01-25T01:44:04;103646.22;;;2.28;100.00
18436;BME280;9346;52.006;4.720;2023-01-25T01:46:33;103648.69;;;2.21;100.00
18436;BME280;9346;52.006;4.720;2023-01-25T01:49:03;103647.81;;;2.21;100.00
18436;BME280;9346;52.006;4.720;2023-01-25T01:51:42;103657.00;;;2.20;100.00
18436;BME280;9346;52.006;4.720;2023-01-25T01:54:15;103640.81;;;2.18;100.00
18436;BME280;9346;52.006;4.720;2023-01-25T01:56:48;103642.44;;;2.11;100.00
18436;BME280;9346;52.006;4.720;2023-01-25T01:59:17;103649.66;;;2.03;100.00
18436;BME280;9346;52.006;4.720;2023-01-25T02:01:45;103643.50;;;2.01;100.00
18436;BME280;9346;52.006;4.720;2023-01-25T02:04:13;103643.13;;;1.96;100.00
18436;BME280;9346;52.006;4.720;2023-01-25T02:06:45;103644.66;;;1.98;100.00
18436;BME280;9346;52.006;4.720;2023-01-25T02:09:18;103641.06;;;1.98;100.00
18436;BME280;9346;52.006;4.720;2023-01-25T02:11:48;103643.34;;;2.02;100.00
18436;BME280;9346;52.006;4.720;2023-01-25T02:14:17;103643.94;;;1.96;100.00
18436;BME280;9346;52.006;4.720;2023-01-25T02:16:45;103633.63;;;2.00;100.00
18436;BME280;9346;52.006;4.720;2023-01-25T02:19:23;103634.75;;;2.07;100.00
18436;BME280;9346;52.006;4.720;2023-01-25T02:21:53;103630.84;;;2.09;100.00
18436;BME280;9346;52.006;4.720;2023-01-25T02:24:29;103638.47;;;2.06;100.00
18436;BME280;9346;52.006;4.720;2023-01-25T02:27:00;103634.50;;;2.00;100.00
18436;BME280;9346;52.006;4.720;2023-01-25T02:29:28;103640.31;;;2.05;100.00
18436;BME280;9346;52.006;4.720;2023-01-25T02:32:01;103636.84;;;2.13;100.00
18436;BME280;9346;52.006;4.720;2023-01-25T02:34:28;103629.78;;;2.20;100.00
18436;BME280;9346;52.006;4.720;2023-01-25T02:36:56;103621.03;;;2.26;100.00
18436;BME280;9346;52.006;4.720;2023-01-25T02:39:23;103618.00;;;2.29;100.00
18436;BME280;9346;52.006;4.720;2023-01-25T02:41:52;103621.75;;;2.28;100.00
18436;BME280;9346;52.006;4.720;2023-01-25T02:44:23;103610.56;;;2.31;100.00
18436;BME280;9346;52.006;4.720;2023-01-25T02:46:51;103615.69;;;2.34;100.00
18436;BME280;9346;52.006;4.720;2023-01-25T02:49:19;103606.50;;;2.35;100.00
18436;BME280;9346;52.006;4.720;2023-01-25T02:51:48;103609.13;;;2.27;100.00
18436;BME280;9346;52.006;4.720;2023-01-25T02:54:17;103605.09;;;2.13;100.00
18436;BME280;9346;52.006;4.720;2023-01-25T02:56:45;103607.00;;;2.03;100.00
18436;BME280;9346;52.006;4.720;2023-01-25T02:59:13;103604.47;;;1.92;100.00
18436;BME280;9346;52.006;4.720;2023-01-25T03:01:42;103598.34;;;1.90;100.00
18436;BME280;9346;52.006;4.720;2023-01-25T03:04:10;103600.44;;;1.96;100.00
18436;BME280;9346;52.006;4.720;2023-01-25T03:06:38;103599.31;;;1.99;100.00
18436;BME280;9346;52.006;4.720;2023-01-25T03:09:07;103599.00;;;2.02;100.00
18436;BME280;9346;52.006;4.720;2023-01-25T03:11:35;103591.53;;;2.04;100.00
18436;BME280;9346;52.006;4.720;2023-01-25T03:14:02;103593.81;;;2.08;100.00
18436;BME280;9346;52.006;4.720;2023-01-25T03:16:30;103592.94;;;2.08;100.00
18436;BME280;9346;52.006;4.720;2023-01-25T03:19:00;103585.41;;;2.02;100.00
18436;BME280;9346;52.006;4.720;2023-01-25T03:21:27;103593.41;;;2.03;100.00
18436;BME280;9346;52.006;4.720;2023-01-25T03:23:55;103584.41;;;2.03;100.00
18436;BME280;9346;52.006;4.720;2023-01-25T03:26:24;103580.44;;;1.97;100.00
18436;BME280;9346;52.006;4.720;2023-01-25T03:28:51;103586.16;;;1.94;100.00
18436;BME280;9346;52.006;4.720;2023-01-25T03:31:19;103575.81;;;1.98;100.00
18436;BME280;9346;52.006;4.720;2023-01-25T03:33:46;103571.56;;;1.95;100.00
18436;BME280;9346;52.006;4.720;2023-01-25T03:36:15;103566.84;;;1.97;100.00
18436;BME280;9346;52.006;4.720;2023-01-25T03:38:43;103563.50;;;2.03;100.00
18436;BME280;9346;52.006;4.720;2023-01-25T03:41:10;103561.47;;;2.05;100.00
18436;BME280;9346;52.006;4.720;2023-01-25T03:43:39;103569.34;;;2.08;100.00
18436;BME280;9346;52.006;4.720;2023-01-25T03:46:06;103566.59;;;2.08;100.00
18436;BME280;9346;52.006;4.720;2023-01-25T03:48:34;103553.72;;;2.10;100.00
18436;BME280;9346;52.006;4.720;2023-01-25T03:51:01;103559.69;;;2.14;100.00
18436;BME280;9346;52.006;4.720;2023-01-25T03:53:30;103562.81;;;2.19;100.00
18436;BME280;9346;52.006;4.720;2023-01-25T03:55:59;103552.97;;;2.18;100.00
18436;BME280;9346;52.006;4.720;2023-01-25T03:58:27;103556.28;;;2.12;100.00
18436;BME280;9346;52.006;4.720;2023-01-25T04:00:56;103554.72;;;2.09;100.00
18436;BME280;9346;52.006;4.720;2023-01-25T04:03:24;103542.06;;;2.00;100.00
18436;BME280;9346;52.006;4.720;2023-01-25T04:05:52;103554.69;;;1.92;100.00
18436;BME280;9346;52.006;4.720;2023-01-25T04:08:20;103551.97;;;1.92;100.00
18436;BME280;9346;52.006;4.720;2023-01-25T04:10:51;103546.22;;;1.95;100.00
18436;BME280;9346;52.006;4.720;2023-01-25T04:13:20;103559.22;;;2.01;100.00
18436;BME280;9346;52.006;4.720;2023-01-25T04:15:47;103557.91;;;2.05;100.00
18436;BME280;9346;52.006;4.720;2023-01-25T04:18:15;103552.00;;;2.09;100.00
18436;BME280;9346;52.006;4.720;2023-01-25T04:20:43;103553.00;;;2.08;100.00
18436;BME280;9346;52.006;4.720;2023-01-25T04:23:11;103543.31;;;2.06;100.00
18436;BME280;9346;52.006;4.720;2023-01-25T04:25:39;103545.72;;;2.09;100.00
18436;BME280;9346;52.006;4.720;2023-01-25T04:28:08;103538.41;;;2.09;100.00
18436;BME280;9346;52.006;4.720;2023-01-25T04:30:35;103544.69;;;2.10;100.00
18436;BME280;9346;52.006;4.720;2023-01-25T04:33:03;103543.16;;;2.07;100.00
18436;BME280;9346;52.006;4.720;2023-01-25T04:35:31;103538.69;;;2.06;100.00
18436;BME280;9346;52.006;4.720;2023-01-25T04:37:59;103536.16;;;2.05;100.00
18436;BME280;9346;52.006;4.720;2023-01-25T04:40:26;103526.13;;;2.05;100.00
18436;BME280;9346;52.006;4.720;2023-01-25T04:42:54;103528.84;;;2.05;100.00
18436;BME280;9346;52.006;4.720;2023-01-25T04:45:23;103524.03;;;1.99;100.00
18436;BME280;9346;52.006;4.720;2023-01-25T04:47:55;103519.19;;;1.93;100.00
18436;BME280;9346;52.006;4.720;2023-01-25T04:50:22;103526.81;;;1.90;100.00
18436;BME280;9346;52.006;4.720;2023-01-25T04:52:50;103514.69;;;1.84;100.00
18436;BME280;9346;52.006;4.720;2023-01-25T04:55:18;103513.56;;;1.77;100.00
18436;BME280;9346;52.006;4.720;2023-01-25T04:57:48;103513.94;;;1.65;100.00
18436;BME280;9346;52.006;4.720;2023-01-25T05:00:16;103510.59;;;1.53;100.00
18436;BME280;9346;52.006;4.720;2023-01-25T05:02:46;103512.34;;;1.45;100.00
18436;BME280;9346;52.006;4.720;2023-01-25T05:05:13;103514.50;;;1.41;100.00
18436;BME280;9346;52.006;4.720;2023-01-25T05:07:41;103516.81;;;1.36;100.00
18436;BME280;9346;52.006;4.720;2023-01-25T05:10:09;103509.81;;;1.34;100.00
18436;BME280;9346;52.006;4.720;2023-01-25T05:12:37;103510.53;;;1.36;100.00
18436;BME280;9346;52.006;4.720;2023-01-25T05:15:06;103515.38;;;1.32;100.00
18436;BME280;9346;52.006;4.720;2023-01-25T05:17:33;103506.25;;;1.33;100.00
18436;BME280;9346;52.006;4.720;2023-01-25T05:20:03;103512.34;;;1.45;100.00
18436;BME280;9346;52.006;4.720;2023-01-25T05:22:31;103506.69;;;1.56;100.00
18436;BME280;9346;52.006;4.720;2023-01-25T05:24:58;103513.09;;;1.64;100.00
18436;BME280;9346;52.006;4.720;2023-01-25T05:27:26;103515.34;;;1.69;100.00
18436;BME280;9346;52.006;4.720;2023-01-25T05:29:52;103512.19;;;1.73;100.00
18436;BME280;9346;52.006;4.720;2023-01-25T05:32:20;103511.72;;;1.78;100.00
18436;BME280;9346;52.006;4.720;2023-01-25T05:34:48;103511.41;;;1.81;100.00
18436;BME280;9346;52.006;4.720;2023-01-25T05:37:20;103511.41;;;1.81;100.00
18436;BME280;9346;52.006;4.720;2023-01-25T05:39:47;103510.41;;;1.82;100.00
18436;BME280;9346;52.006;4.720;2023-01-25T05:42:16;103505.13;;;1.80;100.00
18436;BME280;9346;52.006;4.720;2023-01-25T05:44:44;103513.13;;;1.82;100.00
18436;BME280;9346;52.006;4.720;2023-01-25T05:47:12;103509.56;;;1.81;100.00
18436;BME280;9346;52.006;4.720;2023-01-25T05:49:39;103506.84;;;1.81;100.00
18436;BME280;9346;52.006;4.720;2023-01-25T05:52:10;103502.41;;;1.80;100.00
18436;BME280;9346;52.006;4.720;2023-01-25T05:54:40;103503.97;;;1.83;100.00
18436;BME280;9346;52.006;4.720;2023-01-25T05:57:08;103506.59;;;1.75;100.00
18436;BME280;9346;52.006;4.720;2023-01-25T05:59:35;103505.03;;;1.72;100.00
18436;BME280;9346;52.006;4.720;2023-01-25T06:02:02;103511.88;;;1.76;100.00
18436;BME280;9346;52.006;4.720;2023-01-25T06:04:29;103505.13;;;1.80;100.00
18436;BME280;9346;52.006;4.720;2023-01-25T06:06:57;103505.84;;;1.82;100.00
18436;BME280;9346;52.006;4.720;2023-01-25T06:09:25;103497.03;;;1.71;100.00
18436;BME280;9346;52.006;4.720;2023-01-25T06:11:54;103504.78;;;1.66;100.00
18436;BME280;9346;52.006;4.720;2023-01-25T06:14:21;103511.94;;;1.67;100.00
18436;BME280;9346;52.006;4.720;2023-01-25T06:16:48;103506.22;;;1.70;100.00
18436;BME280;9346;52.006;4.720;2023-01-25T06:19:16;103517.75;;;1.72;100.00
18436;BME280;9346;52.006;4.720;2023-01-25T06:21:43;103513.91;;;1.74;100.00
18436;BME280;9346;52.006;4.720;2023-01-25T06:24:10;103514.44;;;1.78;100.00
18436;BME280;9346;52.006;4.720;2023-01-25T06:26:37;103512.44;;;1.80;100.00
18436;BME280;9346;52.006;4.720;2023-01-25T06:29:06;103508.13;;;1.77;100.00
18436;BME280;9346;52.006;4.720;2023-01-25T06:31:33;103511.34;;;1.73;100.00
18436;BME280;9346;52.006;4.720;2023-01-25T06:34:00;103508.63;;;1.73;100.00
18436;BME280;9346;52.006;4.720;2023-01-25T06:36:31;103507.47;;;1.75;100.00
18436;BME280;9346;52.006;4.720;2023-01-25T06:38:58;103510.72;;;1.79;100.00
18436;BME280;9346;52.006;4.720;2023-01-25T06:41:25;103502.69;;;1.77;100.00
18436;BME280;9346;52.006;4.720;2023-01-25T06:43:52;103501.16;;;1.75;100.00
18436;BME280;9346;52.006;4.720;2023-01-25T06:46:21;103507.59;;;1.74;100.00
18436;BME280;9346;52.006;4.720;2023-01-25T06:48:49;103500.00;;;1.77;100.00
18436;BME280;9346;52.006;4.720;2023-01-25T06:51:17;103501.56;;;1.80;100.00
18436;BME280;9346;52.006;4.720;2023-01-25T06:53:45;103505.97;;;1.81;100.00
18436;BME280;9346;52.006;4.720;2023-01-25T06:56:14;103504.66;;;1.85;100.00
18436;BME280;9346;52.006;4.720;2023-01-25T06:58:42;103501.78;;;1.86;100.00
18436;BME280;9346;52.006;4.720;2023-01-25T07:01:12;103502.81;;;1.85;100.00
18436;BME280;9346;52.006;4.720;2023-01-25T07:03:41;103501.94;;;1.85;100.00
18436;BME280;9346;52.006;4.720;2023-01-25T07:06:09;103500.09;;;1.85;100.00
18436;BME280;9346;52.006;4.720;2023-01-25T07:08:37;103498.41;;;1.84;100.00
18436;BME280;9346;52.006;4.720;2023-01-25T07:11:06;103487.97;;;1.80;100.00
18436;BME280;9346;52.006;4.720;2023-01-25T07:13:36;103489.69;;;1.81;100.00
18436;BME280;9346;52.006;4.720;2023-01-25T07:16:05;103492.25;;;1.82;100.00
18436;BME280;9346;52.006;4.720;2023-01-25T07:18:33;103494.81;;;1.84;100.00
18436;BME280;9346;52.006;4.720;2023-01-25T07:21:05;103493.78;;;1.85;100.00
18436;BME280;9346;52.006;4.720;2023-01-25T07:23:33;103492.81;;;1.86;100.00
18436;BME280;9346;52.006;4.720;2023-01-25T07:26:03;103495.25;;;1.79;100.00
18436;BME280;9346;52.006;4.720;2023-01-25T07:28:31;103501.56;;;1.80;100.00
18436;BME280;9346;52.006;4.720;2023-01-25T07:31:03;103489.53;;;1.82;100.00
18436;BME280;9346;52.006;4.720;2023-01-25T07:33:31;103492.66;;;1.87;100.00
18436;BME280;9346;52.006;4.720;2023-01-25T07:35:59;103483.78;;;1.85;100.00
18436;BME280;9346;52.006;4.720;2023-01-25T07:38:28;103476.81;;;1.83;100.00
18436;BME280;9346;52.006;4.720;2023-01-25T07:40:55;103471.53;;;1.81;100.00
18436;BME280;9346;52.006;4.720;2023-01-25T07:43:23;103473.94;;;1.84;100.00
18436;BME280;9346;52.006;4.720;2023-01-25T07:45:51;103466.75;;;1.83;100.00
18436;BME280;9346;52.006;4.720;2023-01-25T07:48:19;103477.47;;;1.85;100.00
18436;BME280;9346;52.006;4.720;2023-01-25T07:50:47;103471.75;;;1.88;100.00
18436;BME280;9346;52.006;4.720;2023-01-25T07:53:37;103462.03;;;1.85;100.00
18436;BME280;9346;52.006;4.720;2023-01-25T07:56:06;103447.75;;;1.83;100.00
18436;BME280;9346;52.006;4.720;2023-01-25T07:58:34;103451.63;;;1.81;100.00
18436;BME280;9346;52.006;4.720;2023-01-25T08:01:05;103457.38;;;1.78;100.00
18436;BME280;9346;52.006;4.720;2023-01-25T08:03:32;103456.34;;;1.79;100.00
18436;BME280;9346;52.006;4.720;2023-01-25T08:06:00;103457.38;;;1.78;100.00
18436;BME280;9346;52.006;4.720;2023-01-25T08:08:29;103455.38;;;1.80;100.00
18436;BME280;9346;52.006;4.720;2023-01-25T08:11:00;103454.66;;;1.78;100.00
18436;BME280;9346;52.006;4.720;2023-01-25T08:13:32;103450.84;;;1.71;100.00
18436;BME280;9346;52.006;4.720;2023-01-25T08:15:59;103449.28;;;1.68;100.00
18436;BME280;9346;52.006;4.720;2023-01-25T08:18:27;103442.69;;;1.71;100.00
18436;BME280;9346;52.006;4.720;2023-01-25T08:20:56;103451.88;;;1.70;100.00
18436;BME280;9346;52.006;4.720;2023-01-25T08:23:24;103458.13;;;1.70;100.00
18436;BME280;9346;52.006;4.720;2023-01-25T08:25:51;103460.38;;;1.75;100.00
18436;BME280;9346;52.006;4.720;2023-01-25T08:28:20;103461.47;;;1.82;100.00
18436;BME280;9346;52.006;4.720;2023-01-25T08:30:47;103456.50;;;1.77;100.00
18436;BME280;9346;52.006;4.720;2023-01-25T08:33:15;103460.38;;;1.75;100.00
18436;BME280;9346;52.006;4.720;2023-01-25T08:35:42;103462.97;;;1.76;100.00
18436;BME280;9346;52.006;4.720;2023-01-25T08:38:09;103462.81;;;1.78;100.00
18436;BME280;9346;52.006;4.720;2023-01-25T08:40:37;103452.94;;;1.77;100.00
18436;BME280;9346;52.006;4.720;2023-01-25T08:43:04;103453.63;;;1.79;100.00
18436;BME280;9346;52.006;4.720;2023-01-25T08:45:33;103447.88;;;1.82;100.00
18436;BME280;9346;52.006;4.720;2023-01-25T08:48:01;103443.00;;;1.85;100.00
18436;BME280;9346;52.006;4.720;2023-01-25T08:50:29;103437.97;;;1.90;100.00
18436;BME280;9346;52.006;4.720;2023-01-25T08:52:56;103432.34;;;1.92;100.00
18436;BME280;9346;52.006;4.720;2023-01-25T08:55:23;103440.50;;;1.92;100.00
18436;BME280;9346;52.006;4.720;2023-01-25T08:57:50;103446.13;;;1.90;100.00
18436;BME280;9346;52.006;4.720;2023-01-25T09:00:18;103437.97;;;1.90;100.00
18436;BME280;9346;52.006;4.720;2023-01-25T09:02:48;103438.44;;;1.86;100.00
18436;BME280;9346;52.006;4.720;2023-01-25T09:05:15;103436.88;;;1.83;100.00
18436;BME280;9346;52.006;4.720;2023-01-25T09:07:42;103424.00;;;1.85;100.00
18436;BME280;9346;52.006;4.720;2023-01-25T09:10:10;103432.53;;;1.90;100.00
18436;BME280;9346;52.006;4.720;2023-01-25T09:12:37;103427.94;;;1.91;100.00
18436;BME280;9346;52.006;4.720;2023-01-25T09:15:05;103433.38;;;1.91;100.00
18436;BME280;9346;52.006;4.720;2023-01-25T09:17:32;103428.25;;;1.88;100.00
18436;BME280;9346;52.006;4.720;2023-01-25T09:20:07;103425.69;;;1.86;100.00
18436;BME280;9346;52.006;4.720;2023-01-25T09:22:35;103425.22;;;1.91;100.00
18436;BME280;9346;52.006;4.720;2023-01-25T09:25:03;103423.91;;;1.95;100.00
18436;BME280;9346;52.006;4.720;2023-01-25T09:27:30;103426.16;;;1.99;100.00
18436;BME280;9346;52.006;4.720;2023-01-25T09:29:58;103426.00;;;2.01;100.00
18436;BME280;9346;52.006;4.720;2023-01-25T09:32:25;103429.56;;;2.01;100.00
18436;BME280;9346;52.006;4.720;2023-01-25T09:34:52;103426.00;;;2.01;100.00
18436;BME280;9346;52.006;4.720;2023-01-25T09:37:21;103416.84;;;2.02;100.00
18436;BME280;9346;52.006;4.720;2023-01-25T09:39:48;103403.94;;;2.04;100.00
18436;BME280;9346;52.006;4.720;2023-01-25T09:42:33;103409.53;;;2.02;100.00
18436;BME280;9346;52.006;4.720;2023-01-25T09:45:14;103390.81;;;1.99;100.00
18436;BME280;9346;52.006;4.720;2023-01-25T09:47:48;103403.56;;;1.99;100.00
18436;BME280;9346;52.006;4.720;2023-01-25T09:50:35;103389.81;;;2.00;100.00
18436;BME280;9346;52.006;4.720;2023-01-25T09:53:20;103403.25;;;2.02;100.00
18436;BME280;9346;52.006;4.720;2023-01-25T09:55:50;103396.78;;;2.03;100.00
18436;BME280;9346;52.006;4.720;2023-01-25T09:58:20;103391.50;;;2.01;100.00
18436;BME280;9346;52.006;4.720;2023-01-25T10:00:50;103394.38;;;2.00;100.00
18436;BME280;9346;52.006;4.720;2023-01-25T10:03:21;103385.53;;;1.98;100.00
18436;BME280;9346;52.006;4.720;2023-01-25T10:05:53;103384.53;;;1.99;100.00
18436;BME280;9346;52.006;4.720;2023-01-25T10:08:29;103372.94;;;1.97;100.00
18436;BME280;9346;52.006;4.720;2023-01-25T10:11:01;103378.09;;;2.00;100.00
18436;BME280;9346;52.006;4.720;2023-01-25T10:13:30;103371.63;;;2.01;100.00
18436;BME280;9346;52.006;4.720;2023-01-25T10:16:02;103367.91;;;2.02;100.00
18436;BME280;9346;52.006;4.720;2023-01-25T10:18:35;103358.88;;;2.01;100.00
18436;BME280;9346;52.006;4.720;2023-01-25T10:21:08;103358.03;;;2.01;100.00
18436;BME280;9346;52.006;4.720;2023-01-25T10:24:09;103348.09;;;1.92;100.00
18436;BME280;9346;52.006;4.720;2023-01-25T10:26:42;103346.50;;;1.81;100.00
18436;BME280;9346;52.006;4.720;2023-01-25T10:29:14;103345.16;;;1.85;100.00
18436;BME280;9346;52.006;4.720;2023-01-25T10:31:46;103338.94;;;1.93;100.00
18436;BME280;9346;52.006;4.720;2023-01-25T10:34:19;103345.78;;;1.97;100.00
18436;BME280;9346;52.006;4.720;2023-01-25T10:36:48;103341.56;;;2.02;100.00
18436;BME280;9346;52.006;4.720;2023-01-25T10:39:18;103339.38;;;2.06;100.00
18436;BME280;9346;52.006;4.720;2023-01-25T10:41:49;103336.81;;;2.04;100.00
18436;BME280;9346;52.006;4.720;2023-01-25T10:44:17;103329.34;;;2.06;100.00
18436;BME280;9346;52.006;4.720;2023-01-25T10:46:54;103331.22;;;2.06;100.00
18436;BME280;9346;52.006;4.720;2023-01-25T10:49:25;103322.38;;;2.04;100.00
18436;BME280;9346;52.006;4.720;2023-01-25T10:51:55;103318.13;;;2.01;100.00
18436;BME280;9346;52.006;4.720;2023-01-25T10:54:24;103314.06;;;2.05;100.00
18436;BME280;9346;52.006;4.720;2023-01-25T10:56:51;103304.56;;;2.09;100.00
18436;BME280;9346;52.006;4.720;2023-01-25T10:59:22;103301.97;;;2.00;100.00
18436;BME280;9346;52.006;4.720;2023-01-25T11:01:51;103298.03;;;1.94;100.00
18436;BME280;9346;52.006;4.720;2023-01-25T11:04:30;103287.97;;;1.95;100.00
18436;BME280;9346;52.006;4.720;2023-01-25T11:06:59;103292.94;;;1.99;100.00
18436;BME280;9346;52.006;4.720;2023-01-25T11:09:35;103279.56;;;2.06;100.00
18436;BME280;9346;52.006;4.720;2023-01-25T11:12:14;103272.25;;;2.06;100.00
18436;BME280;9346;52.006;4.720;2023-01-25T11:14:42;103270.06;;;2.10;100.00
18436;BME280;9346;52.006;4.720;2023-01-25T11:17:22;103267.03;;;2.13;100.00
18436;BME280;9346;52.006;4.720;2023-01-25T11:20:10;103269.97;;;2.19;100.00
18436;BME280;9346;52.006;4.720;2023-01-25T11:22:48;103261.63;;;2.21;100.00
18436;BME280;9346;52.006;4.720;2023-01-25T11:25:28;103253.00;;;2.25;100.00
18436;BME280;9346;52.006;4.720;2023-01-25T11:28:16;103251.84;;;2.28;100.00
18436;BME280;9346;52.006;4.720;2023-01-25T11:30:44;103232.44;;;2.23;100.00
18436;BME280;9346;52.006;4.720;2023-01-25T11:33:13;103233.22;;;2.15;100.00
18436;BME280;9346;52.006;4.720;2023-01-25T11:36:02;103220.28;;;2.09;100.00
18436;BME280;9346;52.006;4.720;2023-01-25T11:38:32;103208.72;;;2.07;100.00
18436;BME280;9346;52.006;4.720;2023-01-25T11:41:07;103209.69;;;1.98;100.00
18436;BME280;9346;52.006;4.720;2023-01-25T11:44:04;103199.94;;;1.88;100.00
18436;BME280;9346;52.006;4.720;2023-01-25T11:46:47;103183.22;;;1.75;100.00
18436;BME280;9346;52.006;4.720;2023-01-25T11:49:43;103179.50;;;1.76;100.00
18436;BME280;9346;52.006;4.720;2023-01-25T11:52:23;103172.34;;;1.75;100.00
18436;BME280;9346;52.006;4.720;2023-01-25T11:55:01;103169.47;;;1.76;100.00
18436;BME280;9346;52.006;4.720;2023-01-25T11:58:05;103162.81;;;1.71;100.00
18436;BME280;9346;52.006;4.720;2023-01-25T12:00:47;103161.94;;;1.70;100.00
18436;BME280;9346;52.006;4.720;2023-01-25T12:03:43;103157.06;;;1.74;100.00
18436;BME280;9346;52.006;4.720;2023-01-25T12:06:21;103144.97;;;1.68;100.00
18436;BME280;9346;52.006;4.720;2023-01-25T12:09:05;103138.28;;;1.63;100.00
18436;BME280;9346;52.006;4.720;2023-01-25T12:11:42;103124.19;;;1.59;100.00
18436;BME280;9346;52.006;4.720;2023-01-25T12:14:22;103116.84;;;1.52;100.00
18436;BME280;9346;52.006;4.720;2023-01-25T12:17:07;103109.88;;;1.49;100.00
18436;BME280;9346;52.006;4.720;2023-01-25T12:19:53;103108.53;;;1.53;100.00
18436;BME280;9346;52.006;4.720;2023-01-25T12:22:58;103109.09;;;1.57;100.00
18436;BME280;9346;52.006;4.720;2023-01-25T12:25:34;103099.38;;;1.54;100.00
18436;BME280;9346;52.006;4.720;2023-01-25T12:28:11;103097.13;;;1.50;100.00
18436;BME280;9346;52.006;4.720;2023-01-25T12:30:49;103100.88;;;1.49;100.00
18436;BME280;9346;52.006;4.720;2023-01-25T12:33:21;103085.13;;;1.52;100.00
18436;BME280;9346;52.006;4.720;2023-01-25T12:35:55;103079.03;;;1.58;100.00
18436;BME280;9346;52.006;4.720;2023-01-25T12:38:26;103072.44;;;1.61;100.00
18436;BME280;9346;52.006;4.720;2023-01-25T12:40:59;103063.97;;;1.72;100.00
18436;BME280;9346;52.006;4.720;2023-01-25T12:43:31;103062.31;;;1.79;100.00
18436;BME280;9346;52.006;4.720;2023-01-25T12:46:10;103055.06;;;1.87;100.00
18436;BME280;9346;52.006;4.720;2023-01-25T12:48:43;103055.22;;;1.94;100.00
18436;BME280;9346;52.006;4.720;2023-01-25T12:51:14;103053.38;;;2.02;100.00
18436;BME280;9346;52.006;4.720;2023-01-25T12:53:44;103047.47;;;2.07;100.00
18436;BME280;9346;52.006;4.720;2023-01-25T12:56:21;103039.31;;;2.07;100.00
18436;BME280;9346;52.006;4.720;2023-01-25T12:58:57;103032.50;;;2.03;100.00
18436;BME280;9346;52.006;4.720;2023-01-25T13:01:32;103037.78;;;2.04;100.00
18436;BME280;9346;52.006;4.720;2023-01-25T13:04:13;103033.19;;;2.05;100.00
18436;BME280;9346;52.006;4.720;2023-01-25T13:06:49;103028.44;;;2.07;100.00
18436;BME280;9346;52.006;4.720;2023-01-25T13:09:22;103029.63;;;2.12;100.00
18436;BME280;9346;52.006;4.720;2023-01-25T13:11:53;103023.53;;;2.10;100.00
18436;BME280;9346;52.006;4.720;2023-01-25T13:14:31;103021.97;;;2.08;100.00
18436;BME280;9346;52.006;4.720;2023-01-25T13:17:20;103019.72;;;1.95;100.00